»·PEaware :: N24W KBOI-KJAC

N24W :: KBOI-KJAC

FLIGHT INFORMATION

Flight Status: Arrived
Operator: Privately registered:
United States
More flights under this callsign
Pilot: Mark R. (11809)
Aircraft: CESSNA 550 CITATION 2/S2/BRAVO
(C550)
More flights by this aircraft type
Origin: KBOI Boise Air Terminal/Gowen
United States
Destination: KJAC Jackson Hole
United States
More flights between these airports :: More routes between these airports
Route: +BOI NATZZ IDA ECUNA JAC
File this flight plan on PilotEdge
Remarks:
Altitude:
(Current/Filed)
19,000ft
Speed:
(Current/Filed)
320kts
Departed: 26-Apr-18 08:57 AM
Arrived: 26-Apr-18 09:57 AM
Distance/Time
Traveled:
238nm/1:00
Distance/Time
To Go:
Arrived

Flight Plot

Page will automatically refresh every two minutes.

Flight plan parsing failed; only flown route is shown


Map Options




Map Legend


Flown Route
Filed Route
Departure Airport
Arrival Airport
Navaid (VOR, NDB)
Fix

Horizontal Profiles

Position Reports

Time Latitude Longitude Heading Altitude Ground
Speed
26-Apr-18 08:27 43.570419 -116.228020 290 2843ft 0kts
26-Apr-18 08:28 43.570419 -116.228020 290 2843ft 0kts
26-Apr-18 08:29 43.570419 -116.228020 290 2843ft 0kts
26-Apr-18 08:30 43.570419 -116.228020 290 2843ft 0kts
26-Apr-18 08:31 43.570419 -116.228020 290 2843ft 0kts
26-Apr-18 08:32 43.570419 -116.228020 290 2843ft 0kts
26-Apr-18 08:33 43.570419 -116.228020 290 2843ft 0kts
26-Apr-18 08:34 43.570419 -116.228020 290 2843ft 0kts
26-Apr-18 08:35 43.570419 -116.228020 290 2843ft 0kts
26-Apr-18 08:36 43.570419 -116.228020 290 2843ft 0kts
26-Apr-18 08:37 43.570419 -116.228020 290 2843ft 0kts
26-Apr-18 08:38 43.570419 -116.228020 290 2843ft 0kts
26-Apr-18 08:39 43.570419 -116.228020 290 2843ft 0kts
26-Apr-18 08:40 43.570419 -116.228020 290 2843ft 0kts
26-Apr-18 08:41 43.570419 -116.228020 290 2843ft 0kts
26-Apr-18 08:42 43.570419 -116.228020 290 2843ft 0kts
26-Apr-18 08:43 43.570419 -116.228020 290 2843ft 0kts
26-Apr-18 08:44 43.570419 -116.228020 290 2843ft 0kts
26-Apr-18 08:45 43.570419 -116.228020 290 2843ft 0kts
26-Apr-18 08:46 43.570419 -116.228020 290 2843ft 0kts
26-Apr-18 08:47 43.570419 -116.228020 290 2843ft 0kts
26-Apr-18 08:48 43.570419 -116.228020 290 2843ft 0kts
26-Apr-18 08:49 43.570419 -116.228020 290 2843ft 0kts
26-Apr-18 08:50 43.570419 -116.228020 290 2843ft 0kts
26-Apr-18 08:51 43.570232 -116.229548 258 2840ft 6kts
26-Apr-18 08:52 43.569900 -116.232468 295 2834ft 16kts
26-Apr-18 08:53 43.570945 -116.236184 236 2830ft 0kts
26-Apr-18 08:54 43.570945 -116.236184 236 2830ft 0kts
26-Apr-18 08:55 43.570388 -116.236650 198 2829ft 7kts
26-Apr-18 08:56 43.561637 -116.213285 118 3611ft 126kts
26-Apr-18 08:57 43.540819 -116.159887 117 5745ft 196kts
26-Apr-18 08:58 43.523382 -116.082018 78 8311ft 238kts
26-Apr-18 08:59 43.530803 -115.988910 83 11120ft 250kts
26-Apr-18 09:00 43.537096 -115.893703 84 13757ft 254kts
26-Apr-18 09:01 43.543192 -115.795765 84 16052ft 259kts
26-Apr-18 09:02 43.549253 -115.696143 84 18089ft 264kts
26-Apr-18 09:03 43.555308 -115.594273 84 19874ft 271kts
26-Apr-18 09:04 43.561338 -115.490035 85 20949ft 295kts
26-Apr-18 09:05 43.568369 -115.368252 85 21005ft 340kts
26-Apr-18 09:06 43.572483 -115.234480 88 21001ft 352kts
26-Apr-18 09:07 43.571718 -115.100081 90 20999ft 350kts
26-Apr-18 09:08 43.570927 -114.965831 89 21000ft 350kts
26-Apr-18 09:09 43.570105 -114.832015 89 21000ft 350kts
26-Apr-18 09:10 43.569149 -114.697936 89 21000ft 350kts
26-Apr-18 09:11 43.568044 -114.563942 89 21000ft 350kts
26-Apr-18 09:12 43.566853 -114.430747 90 21000ft 350kts
26-Apr-18 09:13 43.565497 -114.296620 90 21000ft 350kts
26-Apr-18 09:14 43.563937 -114.162824 90 21000ft 350kts
26-Apr-18 09:15 43.562204 -114.028601 90 21000ft 350kts
26-Apr-18 09:16 43.560320 -113.894954 90 21000ft 350kts
26-Apr-18 09:17 43.558271 -113.760697 90 21000ft 350kts
26-Apr-18 09:18 43.556072 -113.627004 90 21000ft 350kts
26-Apr-18 09:19 43.553727 -113.493855 91 21002ft 350kts
26-Apr-18 09:20 43.551322 -113.359836 91 20999ft 350kts
26-Apr-18 09:21 43.548676 -113.225676 91 20999ft 350kts
26-Apr-18 09:22 43.545866 -113.092414 91 21000ft 350kts
26-Apr-18 09:23 43.542881 -112.958486 91 21000ft 350kts
26-Apr-18 09:24 43.539732 -112.824324 91 21000ft 350kts
26-Apr-18 09:25 43.536425 -112.690319 91 21000ft 350kts
26-Apr-18 09:26 43.532965 -112.556522 91 21000ft 350kts
26-Apr-18 09:27 43.529448 -112.423721 92 21000ft 350kts
26-Apr-18 09:28 43.525747 -112.290130 92 21000ft 350kts
26-Apr-18 09:29 43.521834 -112.156348 92 21000ft 350kts
26-Apr-18 09:30 43.524812 -112.022757 88 20993ft 350kts
26-Apr-18 09:31 43.533549 -111.890566 83 21314ft 339kts
26-Apr-18 09:32 43.543703 -111.760470 84 21351ft 349kts
26-Apr-18 09:33 43.554397 -111.623967 83 21352ft 364kts
26-Apr-18 09:34 43.565062 -111.486642 85 21437ft 359kts
26-Apr-18 09:35 43.575522 -111.351658 83 21354ft 343kts
26-Apr-18 09:36 43.584994 -111.226289 84 21394ft 321kts
26-Apr-18 09:37 43.594071 -111.104714 83 21402ft 320kts
26-Apr-18 09:38 43.603281 -110.978849 83 20249ft 337kts
26-Apr-18 09:39 43.611673 -110.862772 82 18209ft 281kts
26-Apr-18 09:40 43.619274 -110.756393 81 16221ft 276kts
26-Apr-18 09:41 43.633426 -110.655655 73 15015ft 259kts
26-Apr-18 09:42 43.649863 -110.559262 73 15010ft 257kts
26-Apr-18 09:43 43.665571 -110.465389 73 14712ft 249kts
26-Apr-18 09:44 43.685087 -110.381469 40 13398ft 215kts
26-Apr-18 09:45 43.737352 -110.356987 7 12731ft 198kts
26-Apr-18 09:46 43.792919 -110.344481 2 12705ft 206kts
26-Apr-18 09:47 43.830894 -110.393176 284 11396ft 211kts
26-Apr-18 09:48 43.845857 -110.466692 286 10993ft 191kts
26-Apr-18 09:49 43.857969 -110.542448 285 11011ft 204kts
26-Apr-18 09:50 43.845935 -110.614151 218 10679ft 214kts
26-Apr-18 09:51 43.794472 -110.645288 202 9705ft 194kts
26-Apr-18 09:52 43.747486 -110.669339 201 9163ft 170kts
26-Apr-18 09:53 43.707230 -110.689154 200 8337ft 145kts
26-Apr-18 09:54 43.670265 -110.707157 199 7622ft 140kts
26-Apr-18 09:55 43.633127 -110.725254 200 6856ft 141kts
26-Apr-18 09:56 43.602803 -110.739972 200 6432ft 33kts
26-Apr-18 09:57 43.598933 -110.739985 127 6425ft 8kts
26-Apr-18 09:58 43.598854 -110.738809 290 6426ft 0kts
26-Apr-18 09:59 43.598854 -110.738809 290 6426ft 0kts
26-Apr-18 10:00 43.598854 -110.738809 290 6426ft 0kts
26-Apr-18 10:01 43.598854 -110.738809 290 6426ft 0kts
26-Apr-18 10:02 43.598854 -110.738809 290 6426ft 0kts
26-Apr-18 10:03 43.598854 -110.738809 290 6426ft 0kts
26-Apr-18 10:04 43.598854 -110.738809 290 6426ft 0kts
26-Apr-18 10:05 43.598854 -110.738809 290 6426ft 0kts
26-Apr-18 10:06 43.598854 -110.738809 290 6426ft 0kts
26-Apr-18 10:07 43.598854 -110.738809 290 6426ft 0kts
26-Apr-18 10:08 43.598854 -110.738809 290 6426ft 0kts
26-Apr-18 10:09 43.598854 -110.738809 290 6426ft 0kts
26-Apr-18 10:10 43.598854 -110.738809 290 6426ft 0kts

Navigation Log

Ident Type
Flight plan parsing failed, navigation log unavailable